Time;durP1;ratioP1;P1;durP2;ratioP2;P2;SDS_P1;SDS_P2;PMS_P1;PMS_P2;Temp;Humidity;BMP_temperature;BMP_pressure;BME280_temperature;BME280_humidity;BME280_pressure;Samples;Min_cycle;Max_cycle;Signal;HPM_P1;HPM_P2
2022/04/28 00:01:47;;;;;;;34.25;18.85;;;;;;;4.66;63.41;99258.63;5092878;28;20032;-68
2022/04/28 00:04:12;;;;;;;35.45;19.52;;;;;;;4.63;63.73;99253.66;5093640;28;20035;-68
2022/04/28 00:06:38;;;;;;;33.03;18.98;;;;;;;4.59;63.75;99250.56;5093053;28;20036;-68
2022/04/28 00:09:04;;;;;;;30.35;17.85;;;;;;;4.57;63.70;99257.31;5092597;28;20051;-68
2022/04/28 00:11:30;;;;;;;32.03;18.98;;;;;;;4.54;63.96;99253.16;5092533;28;20028;-68
2022/04/28 00:13:55;;;;;;;35.72;19.48;;;;;;;4.51;63.76;99252.81;5092789;28;20035;-69
2022/04/28 00:16:21;;;;;;;34.72;18.77;;;;;;;4.51;63.96;99259.06;5092700;28;20030;-68
2022/04/28 00:18:46;;;;;;;35.42;19.63;;;;;;;4.49;63.79;99258.47;5092853;28;20031;-68
2022/04/28 00:21:11;;;;;;;39.08;20.15;;;;;;;4.48;63.81;99256.84;5091153;28;20031;-69
2022/04/28 00:23:37;;;;;;;35.78;19.77;;;;;;;4.47;64.01;99255.22;5092542;28;20457;-68
2022/04/28 00:26:02;;;;;;;33.20;19.52;;;;;;;4.45;64.05;99257.34;5092506;28;20102;-68
2022/04/28 00:28:28;;;;;;;36.97;19.33;;;;;;;4.43;63.95;99260.28;5092469;28;20397;-68
2022/04/28 00:30:53;;;;;;;34.05;19.55;;;;;;;4.42;64.56;99258.59;5092143;28;20031;-67
2022/04/28 00:33:18;;;;;;;33.75;19.58;;;;;;;4.42;64.74;99264.03;5092328;28;20028;-68
2022/04/28 00:35:45;;;;;;;36.20;20.15;;;;;;;4.41;64.35;99262.38;5092692;28;20031;-68
2022/04/28 00:38:11;;;;;;;37.08;19.73;;;;;;;4.38;64.45;99260.16;5092811;28;20030;-69
2022/04/28 00:40:37;;;;;;;37.50;21.48;;;;;;;4.35;64.40;99259.81;5092408;28;20039;-69
2022/04/28 00:43:23;;;;;;;41.38;23.02;;;;;;;4.32;64.64;99267.34;5092490;28;20028;-69
2022/04/28 00:45:49;;;;;;;38.20;22.63;;;;;;;4.32;64.92;99269.22;5092659;28;20582;-68
2022/04/28 00:51:02;;;;;;;35.42;22.10;;;;;;;4.31;65.00;99268.41;5093046;28;20047;-68
2022/04/28 00:53:30;;;;;;;41.25;24.05;;;;;;;4.33;64.85;99268.16;5092592;28;20028;-69
2022/04/28 00:55:59;;;;;;;40.15;23.35;;;;;;;4.33;64.37;99265.44;5091522;28;20034;-68
2022/04/28 00:58:25;;;;;;;39.45;23.52;;;;;;;4.29;64.22;99262.38;5093135;28;20048;-69
2022/04/28 01:00:55;;;;;;;39.40;22.75;;;;;;;4.26;64.57;99268.28;5092572;28;20101;-69
2022/04/28 01:03:21;;;;;;;34.95;22.70;;;;;;;4.23;64.68;99257.09;5093190;28;20024;-68
2022/04/28 01:05:47;;;;;;;39.50;23.40;;;;;;;4.17;65.08;99259.66;5092982;28;20039;-69
2022/04/28 01:08:13;;;;;;;35.60;21.63;;;;;;;4.15;64.68;99260.94;5093381;28;20103;-69
2022/04/28 01:10:39;;;;;;;35.63;22.13;;;;;;;4.10;65.41;99253.53;5092827;28;20111;-69
2022/04/28 01:13:05;;;;;;;32.67;19.92;;;;;;;4.08;64.96;99261.06;5092591;28;20154;-69
2022/04/28 01:15:42;;;;;;;34.10;20.35;;;;;;;4.04;64.58;99251.72;5092969;28;20020;-69
2022/04/28 01:18:07;;;;;;;33.60;20.45;;;;;;;4.02;65.49;99251.97;5093058;28;20024;-69
2022/04/28 01:20:32;;;;;;;35.33;21.00;;;;;;;4.00;65.25;99251.38;5091177;28;20035;-68
2022/04/28 01:22:58;;;;;;;33.50;18.83;;;;;;;3.98;65.32;99249.94;5092520;28;20111;-69
2022/04/28 01:25:23;;;;;;;31.42;19.00;;;;;;;3.94;64.79;99254.19;5092403;28;20411;-69
2022/04/28 01:27:50;;;;;;;32.47;19.83;;;;;;;3.95;65.31;99251.25;5092698;28;20099;-69
2022/04/28 01:30:15;;;;;;;30.23;19.40;;;;;;;3.95;65.54;99250.41;5092174;28;20486;-69
2022/04/28 01:32:41;;;;;;;38.50;19.77;;;;;;;3.94;65.40;99251.47;5092114;28;20035;-69
2022/04/28 01:35:07;;;;;;;34.95;19.77;;;;;;;3.93;65.49;99255.25;5092092;28;20028;-69
2022/04/28 01:37:33;;;;;;;30.58;18.40;;;;;;;3.91;65.89;99249.22;5091972;28;20722;-69
2022/04/28 01:39:59;;;;;;;32.65;19.17;;;;;;;3.91;65.65;99251.94;5091810;28;20028;-69
2022/04/28 01:42:25;;;;;;;33.67;19.00;;;;;;;3.92;66.00;99248.16;5092099;28;20082;-69
2022/04/28 01:44:51;;;;;;;33.42;19.35;;;;;;;3.90;65.57;99242.97;5092069;28;20024;-69
2022/04/28 01:47:16;;;;;;;34.00;20.85;;;;;;;3.91;65.68;99247.34;5091803;28;20171;-68
2022/04/28 01:49:42;;;;;;;43.47;24.20;;;;;;;3.90;65.72;99253.00;5091099;28;20052;-68
2022/04/28 01:54:57;;;;;;;49.92;25.52;;;;;;;3.87;66.27;99248.88;5091039;28;20601;-69
2022/04/28 01:57:24;;;;;;;39.35;21.48;;;;;;;3.85;65.82;99253.69;5090965;28;20050;-69
2022/04/28 01:59:49;;;;;;;35.92;20.50;;;;;;;3.82;65.85;99255.00;5090913;28;20054;-69
2022/04/28 02:02:14;;;;;;;33.95;19.95;;;;;;;3.80;66.19;99251.69;5091534;28;20055;-69
2022/04/28 02:04:40;;;;;;;33.67;18.48;;;;;;;3.78;65.85;99252.97;5091801;28;20031;-69
2022/04/28 02:07:06;;;;;;;32.85;19.85;;;;;;;3.74;65.82;99255.34;5091640;28;20448;-69
2022/04/28 02:09:32;;;;;;;33.85;19.48;;;;;;;3.76;66.35;99255.09;5091724;28;20031;-69
2022/04/28 02:11:57;;;;;;;34.97;19.77;;;;;;;3.73;66.93;99253.69;5091196;28;20028;-69
2022/04/28 02:14:23;;;;;;;34.08;19.23;;;;;;;3.75;66.62;99259.69;5091615;28;20023;-69
2022/04/28 02:16:49;;;;;;;35.33;18.77;;;;;;;3.75;66.65;99251.56;5091590;28;20020;-69
2022/04/28 02:19:14;;;;;;;30.13;18.75;;;;;;;3.74;66.04;99255.34;5091649;28;20500;-69
2022/04/28 02:21:39;;;;;;;29.73;17.80;;;;;;;3.73;66.94;99256.41;5091107;28;20031;-69
2022/04/28 02:24:05;;;;;;;32.05;18.88;;;;;;;3.75;67.01;99256.16;5091511;28;20020;-69
2022/04/28 02:26:30;;;;;;;33.00;19.63;;;;;;;3.75;66.33;99256.16;5091434;28;20385;-69
2022/04/28 02:28:56;;;;;;;34.72;19.73;;;;;;;3.76;66.73;99255.09;5091113;28;20432;-69
2022/04/28 02:31:21;;;;;;;35.97;20.08;;;;;;;3.76;66.51;99249.66;5090866;28;20431;-69
2022/04/28 02:33:46;;;;;;;32.25;19.70;;;;;;;3.76;67.14;99250.50;5091514;28;20073;-69
2022/04/28 02:36:15;;;;;;;39.20;20.75;;;;;;;3.76;66.34;99252.38;5089662;28;20043;-69
2022/04/28 02:38:40;;;;;;;33.92;19.38;;;;;;;3.76;66.78;99258.66;5091105;28;20035;-69
2022/04/28 02:41:06;;;;;;;31.50;19.45;;;;;;;3.79;66.74;99255.47;5090591;28;20024;-69
2022/04/28 02:43:32;;;;;;;29.52;18.40;;;;;;;3.79;66.53;99255.47;5090926;28;20020;-69
2022/04/28 02:45:58;;;;;;;32.67;17.60;;;;;;;3.81;66.60;99253.34;5090724;28;20036;-69
2022/04/28 02:48:24;;;;;;;29.20;18.05;;;;;;;3.81;66.97;99249.78;5090770;28;20028;-69
2022/04/28 02:50:50;;;;;;;29.75;18.65;;;;;;;3.81;67.33;99258.78;5090503;28;20024;-69
2022/04/28 02:53:15;;;;;;;30.88;18.73;;;;;;;3.81;66.95;99256.06;5090256;28;20029;-69
2022/04/28 02:55:40;;;;;;;69.72;34.30;;;;;;;3.82;66.52;99252.28;5090908;28;20466;-69
2022/04/28 02:58:06;;;;;;;68.75;35.78;;;;;;;3.80;66.30;99257.13;5090489;28;20030;-69
2022/04/28 03:00:31;;;;;;;54.88;29.92;;;;;;;3.80;67.23;99264.44;5090386;28;20031;-69
2022/04/28 03:02:57;;;;;;;37.50;21.15;;;;;;;3.77;67.36;99263.00;5090482;28;20089;-69
2022/04/28 03:05:22;;;;;;;37.13;20.05;;;;;;;3.73;66.93;99264.53;5090687;28;20024;-69
2022/04/28 03:10:49;;;;;;;33.67;19.33;;;;;;;3.69;67.08;99266.06;5090447;28;20065;-68
2022/04/28 03:13:17;;;;;;;37.47;19.33;;;;;;;3.68;67.00;99264.41;5090285;28;20012;-69
2022/04/28 03:15:45;;;;;;;34.58;19.05;;;;;;;3.66;67.67;99272.78;5089850;28;20033;-69
2022/04/28 03:18:15;;;;;;;31.63;18.40;;;;;;;3.66;67.24;99277.38;5090543;28;20474;-69
2022/04/28 03:20:41;;;;;;;34.22;19.33;;;;;;;3.65;67.58;99273.84;5090142;28;20095;-68
2022/04/28 03:23:07;;;;;;;35.30;18.60;;;;;;;3.66;67.69;99274.66;5090256;28;20028;-69
2022/04/28 03:25:33;;;;;;;35.88;19.10;;;;;;;3.67;66.96;99276.31;5089525;28;20059;-69
2022/04/28 03:27:59;;;;;;;27.05;16.67;;;;;;;3.65;67.39;99273.00;5088952;28;20056;-69
2022/04/28 03:30:24;;;;;;;31.92;15.98;;;;;;;3.61;67.74;99278.06;5089628;28;20031;-69
2022/04/28 03:32:49;;;;;;;24.48;14.95;;;;;;;3.58;66.91;99273.09;5089989;28;20028;-69
2022/04/28 03:35:15;;;;;;;22.98;14.63;;;;;;;3.55;67.10;99276.25;5089590;28;20028;-69
2022/04/28 03:37:44;;;;;;;25.15;14.55;;;;;;;3.51;67.25;99273.16;5089466;28;20454;-69
2022/04/28 03:40:10;;;;;;;24.65;14.82;;;;;;;3.47;66.90;99280.09;5089530;28;20070;-69
2022/04/28 03:42:36;;;;;;;27.45;16.83;;;;;;;3.43;67.86;99281.66;5089862;28;20021;-68
2022/04/28 03:45:01;;;;;;;29.50;16.20;;;;;;;3.43;67.09;99276.22;5089787;28;20055;-69
2022/04/28 03:47:35;;;;;;;33.22;17.33;;;;;;;3.41;67.19;99289.19;5089687;28;20470;-69
2022/04/28 03:50:01;;;;;;;33.97;18.80;;;;;;;3.39;68.09;99286.69;5089559;28;20020;-69
2022/04/28 03:52:27;;;;;;;36.20;18.33;;;;;;;3.42;68.19;99290.84;5090212;28;20465;-69
2022/04/28 03:54:52;;;;;;;35.10;18.80;;;;;;;3.44;67.58;99291.44;5089911;28;20038;-69
2022/04/28 03:57:17;;;;;;;31.30;17.00;;;;;;;3.52;67.74;99284.84;5089883;28;20470;-69
2022/04/28 03:59:43;;;;;;;35.03;17.70;;;;;;;3.51;67.88;99285.91;5089697;28;20024;-69
2022/04/28 04:02:08;;;;;;;31.33;17.50;;;;;;;3.50;68.38;99297.81;5089523;28;20111;-69
2022/04/28 04:04:33;;;;;;;32.92;17.88;;;;;;;3.51;68.09;99289.44;5088370;28;20023;-69
2022/04/28 04:06:59;;;;;;;29.52;16.88;;;;;;;3.60;68.50;99299.97;5089644;28;20096;-69
2022/04/28 04:09:24;;;;;;;31.05;16.42;;;;;;;3.64;68.79;99295.75;5089462;28;20040;-69
2022/04/28 04:11:50;;;;;;;27.27;16.00;;;;;;;3.68;68.86;99299.66;5089005;28;20456;-68
2022/04/28 04:14:15;;;;;;;26.08;16.20;;;;;;;3.71;68.30;99299.19;5089708;28;20051;-69
2022/04/28 04:16:40;;;;;;;28.48;16.08;;;;;;;3.73;68.09;99303.31;5090181;28;20032;-69
2022/04/28 04:19:06;;;;;;;26.50;16.27;;;;;;;3.78;68.47;99302.66;5089490;28;20591;-69
2022/04/28 04:21:31;;;;;;;27.02;15.80;;;;;;;3.81;68.31;99301.34;5088984;28;20064;-69
2022/04/28 04:23:57;;;;;;;27.83;16.95;;;;;;;3.87;67.86;99303.16;5090829;28;20489;-69
2022/04/28 04:26:23;;;;;;;28.75;17.30;;;;;;;3.95;68.09;99307.41;5093387;28;20024;-69
2022/04/28 04:28:48;;;;;;;24.92;15.05;;;;;;;4.05;68.45;99313.09;5093280;28;20036;-69
2022/04/28 04:33:57;;;;;;;24.52;14.75;;;;;;;4.28;68.71;99312.34;5093486;28;20039;-69
2022/04/28 04:36:23;;;;;;;25.67;14.95;;;;;;;4.39;68.69;99310.69;5092093;28;20390;-69
2022/04/28 04:38:48;;;;;;;26.02;15.48;;;;;;;4.53;68.46;99319.44;5093299;28;20149;-69
2022/04/28 04:41:13;;;;;;;25.33;15.35;;;;;;;4.66;68.16;99321.13;5091364;28;20024;-69
2022/04/28 04:43:39;;;;;;;25.08;15.38;;;;;;;4.76;67.97;99315.09;5093376;28;20054;-70
2022/04/28 04:46:05;;;;;;;27.45;16.23;;;;;;;4.83;68.29;99317.66;5093295;28;20040;-70
2022/04/28 04:48:31;;;;;;;25.77;16.70;;;;;;;4.89;68.19;99317.53;5093785;28;20500;-69
2022/04/28 04:50:57;;;;;;;25.38;15.43;;;;;;;5.02;68.87;99321.91;5091563;28;20027;-69
2022/04/28 04:53:22;;;;;;;27.50;16.85;;;;;;;5.12;68.08;99329.47;5092945;28;20502;-69
2022/04/28 04:55:50;;;;;;;33.30;17.83;;;;;;;5.19;68.17;99323.88;5092726;28;20074;-69
2022/04/28 04:58:15;;;;;;;27.95;17.30;;;;;;;5.28;67.97;99321.66;5092241;28;20028;-69
2022/04/28 05:00:40;;;;;;;29.75;17.95;;;;;;;5.36;68.00;99318.53;5091481;28;20036;-69
2022/04/28 05:03:06;;;;;;;24.92;17.10;;;;;;;5.49;68.06;99314.72;5092592;28;20355;-70
2022/04/28 05:05:31;;;;;;;26.15;16.65;;;;;;;5.66;68.38;99320.22;5092116;28;20087;-70
2022/04/28 05:07:57;;;;;;;23.90;15.30;;;;;;;5.81;67.87;99327.84;5092698;28;20024;-69
2022/04/28 05:10:22;;;;;;;22.65;13.77;;;;;;;5.94;67.86;99324.81;5092340;28;20463;-69
2022/04/28 05:12:48;;;;;;;23.55;15.35;;;;;;;6.06;67.93;99323.97;5092755;28;20028;-69
2022/04/28 05:15:14;;;;;;;24.40;15.43;;;;;;;6.18;67.89;99326.63;5091140;28;20026;-69
2022/04/28 05:17:39;;;;;;;29.65;18.65;;;;;;;6.29;67.34;99330.38;5091164;28;20082;-69
2022/04/28 05:20:06;;;;;;;25.98;16.20;;;;;;;6.39;67.17;99328.63;5092172;28;20047;-69
2022/04/28 05:22:32;;;;;;;25.38;15.48;;;;;;;6.50;66.97;99324.16;5092636;28;20537;-70
2022/04/28 05:24:57;;;;;;;27.70;19.70;;;;;;;6.60;66.96;99328.13;5092270;28;20079;-70
2022/04/28 05:27:23;;;;;;;25.35;16.13;;;;;;;6.72;67.00;99339.78;5092292;28;20030;-69
2022/04/28 05:29:48;;;;;;;21.00;13.88;;;;;;;6.80;66.75;99338.53;5092516;28;20032;-69
2022/04/28 05:32:14;;;;;;;23.77;15.10;;;;;;;6.85;67.03;99336.69;5092419;28;20031;-69
2022/04/28 05:34:39;;;;;;;22.05;14.73;;;;;;;6.94;66.48;99345.28;5092030;28;20020;-70
2022/04/28 05:37:06;;;;;;;22.55;14.68;;;;;;;7.02;66.52;99354.94;5090266;28;20028;-70
2022/04/28 05:39:31;;;;;;;24.10;16.35;;;;;;;7.06;66.44;99347.91;5092504;28;20138;-70
2022/04/28 05:41:57;;;;;;;22.42;15.05;;;;;;;7.17;65.91;99357.06;5092134;28;20103;-69
2022/04/28 05:47:07;;;;;;;22.85;13.88;;;;;;;7.35;65.61;99353.22;5092758;28;20522;-70
2022/04/28 05:49:33;;;;;;;24.13;16.25;;;;;;;7.42;65.79;99353.84;5091816;28;20121;-70
2022/04/28 05:51:59;;;;;;;23.40;15.32;;;;;;;7.52;65.77;99347.69;5092134;28;20085;-70
2022/04/28 05:54:24;;;;;;;21.35;13.80;;;;;;;7.63;65.69;99345.91;5092014;28;20020;-69
2022/04/28 05:56:50;;;;;;;23.17;15.52;;;;;;;7.71;65.02;99359.09;5091939;28;20020;-70
2022/04/28 05:59:16;;;;;;;25.05;15.40;;;;;;;7.79;65.51;99362.47;5073465;28;20035;-70
2022/04/28 06:01:42;;;;;;;29.45;17.17;;;;;;;7.82;64.63;99359.22;5091425;28;20426;-69
2022/04/28 06:04:08;;;;;;;28.00;16.60;;;;;;;7.88;64.79;99355.47;5091955;28;20490;-69
2022/04/28 06:06:34;;;;;;;22.50;14.45;;;;;;;7.96;64.60;99360.47;5091282;28;20036;-70
2022/04/28 06:08:59;;;;;;;45.55;25.58;;;;;;;8.03;64.42;99358.34;5091548;28;20052;-69
2022/04/28 06:11:25;;;;;;;40.92;23.88;;;;;;;8.13;64.33;99359.56;5091040;28;20442;-70
2022/04/28 06:13:50;;;;;;;23.20;15.45;;;;;;;8.22;64.20;99354.44;5091341;28;20028;-70
2022/04/28 06:16:16;;;;;;;26.67;15.80;;;;;;;8.32;63.98;99357.28;5091375;28;20103;-70
2022/04/28 06:18:41;;;;;;;27.88;17.00;;;;;;;8.43;63.94;99355.44;5091578;28;20027;-70
2022/04/28 06:21:07;;;;;;;25.15;15.95;;;;;;;8.52;63.81;99355.84;5090587;28;21401;-68
2022/04/28 06:23:32;;;;;;;27.83;17.45;;;;;;;8.61;63.37;99357.84;5090130;28;20012;-68
2022/04/28 06:25:57;;;;;;;26.95;16.55;;;;;;;8.70;63.73;99357.38;5091399;28;20488;-67
2022/04/28 06:28:23;;;;;;;26.83;15.75;;;;;;;8.81;62.85;99361.00;5090982;28;20571;-68
2022/04/28 06:30:48;;;;;;;26.58;16.38;;;;;;;8.90;62.98;99362.97;5087588;28;20024;-67
2022/04/28 06:33:14;;;;;;;26.98;15.68;;;;;;;9.01;62.54;99360.31;5089635;28;20039;-68
2022/04/28 06:35:39;;;;;;;28.48;16.17;;;;;;;9.09;62.59;99360.63;5090004;28;20020;-68
2022/04/28 06:38:05;;;;;;;24.80;15.68;;;;;;;9.17;61.89;99367.50;5090179;28;20054;-68
2022/04/28 06:40:31;;;;;;;29.63;16.92;;;;;;;9.27;62.84;99358.56;5089979;28;20020;-68
2022/04/28 06:42:56;;;;;;;31.27;17.45;;;;;;;9.37;62.37;99366.00;5090488;28;20024;-69
2022/04/28 06:45:23;;;;;;;27.05;16.15;;;;;;;9.45;62.02;99365.50;5089781;28;20051;-68
2022/04/28 06:47:48;;;;;;;33.33;18.45;;;;;;;9.57;62.38;99373.47;5089097;28;20028;-68
2022/04/28 06:50:13;;;;;;;23.73;14.93;;;;;;;9.72;61.34;99366.44;5090433;28;20536;-68
2022/04/28 06:52:39;;;;;;;29.65;15.55;;;;;;;9.87;62.14;99365.66;5090301;28;20032;-68
2022/04/28 06:55:06;;;;;;;24.77;14.27;;;;;;;9.96;61.34;99370.34;5089492;28;20048;-68
2022/04/28 06:57:32;;;;;;;24.00;14.27;;;;;;;10.08;60.90;99366.53;5091295;28;20070;-68
2022/04/28 06:59:57;;;;;;;25.27;15.18;;;;;;;10.16;60.00;99378.88;5090781;28;20052;-68
2022/04/28 07:02:23;;;;;;;30.48;17.83;;;;;;;10.27;60.11;99378.63;5090991;28;20684;-68
2022/04/28 07:04:48;;;;;;;69.82;32.78;;;;;;;10.34;59.76;99378.38;5089543;28;20063;-67
2022/04/28 07:07:14;;;;;;;32.17;17.50;;;;;;;10.43;59.65;99378.69;5090550;28;20472;-68
2022/04/28 07:09:41;;;;;;;341.70;144.40;;;;;;;10.52;59.82;99382.53;5090615;28;20760;-69
2022/04/28 07:12:07;;;;;;;140.60;59.25;;;;;;;10.61;59.69;99380.06;5089541;28;20035;-71
2022/04/28 07:14:35;;;;;;;28.33;15.32;;;;;;;10.71;59.30;99377.34;5086602;28;20118;-69
2022/04/28 07:17:00;;;;;;;19.63;12.23;;;;;;;10.79;59.29;99375.94;5085677;28;20063;-69
2022/04/28 07:19:25;;;;;;;42.08;19.77;;;;;;;10.84;58.89;99384.19;5090908;28;20051;-68
2022/04/28 07:21:52;;;;;;;24.00;14.15;;;;;;;10.92;57.67;99380.06;5089896;28;20028;-68
2022/04/28 07:24:17;;;;;;;18.38;11.45;;;;;;;11.00;57.60;99379.50;5090588;28;20036;-68
2022/04/28 07:26:43;;;;;;;18.10;11.70;;;;;;;11.08;57.50;99385.53;5087850;28;20040;-70
2022/04/28 07:29:08;;;;;;;29.08;19.00;;;;;;;11.16;57.82;99390.47;5085842;28;20028;-68
2022/04/28 07:31:34;;;;;;;18.05;12.18;;;;;;;11.26;58.34;99392.38;5088197;28;20035;-68
2022/04/28 07:33:59;;;;;;;13.55;8.82;;;;;;;11.39;57.25;99388.22;5089498;28;20032;-68
2022/04/28 07:36:25;;;;;;;14.23;8.90;;;;;;;11.49;54.79;99401.09;5088187;28;20380;-69
2022/04/28 07:38:51;;;;;;;15.93;9.93;;;;;;;11.59;55.70;99392.81;5088812;28;20039;-70
2022/04/28 07:41:16;;;;;;;18.23;11.27;;;;;;;11.71;56.17;99395.25;5090878;28;20173;-70
2022/04/28 07:43:42;;;;;;;16.88;9.98;;;;;;;11.79;55.75;99397.41;5089174;28;20054;-69
2022/04/28 07:46:08;;;;;;;14.93;9.75;;;;;;;11.85;54.42;99399.03;5087936;28;20036;-70
2022/04/28 07:48:33;;;;;;;15.90;9.75;;;;;;;11.93;54.53;99402.31;5088837;28;20020;-68
2022/04/28 07:50:58;;;;;;;16.92;10.88;;;;;;;11.99;54.18;99404.78;5085667;28;20020;-68
2022/04/28 07:53:24;;;;;;;19.20;11.35;;;;;;;12.03;54.31;99392.13;5083899;28;20028;-69
2022/04/28 07:58:34;;;;;;;16.85;10.70;;;;;;;12.08;54.14;99399.50;5087784;28;20038;-69
2022/04/28 08:01:00;;;;;;;18.08;10.75;;;;;;;12.14;54.50;99400.31;5090947;28;20028;-70
2022/04/28 08:03:26;;;;;;;17.13;10.55;;;;;;;12.22;54.45;99402.47;5092123;28;20548;-70
2022/04/28 08:05:53;;;;;;;18.63;11.35;;;;;;;12.32;53.28;99398.84;5092395;28;20036;-70
2022/04/28 08:08:19;;;;;;;15.60;10.43;;;;;;;12.35;52.07;99399.06;5090133;28;20060;-68
2022/04/28 08:10:44;;;;;;;14.13;9.23;;;;;;;12.42;53.25;99400.69;5091934;28;20482;-68
2022/04/28 08:13:10;;;;;;;15.25;9.07;;;;;;;12.53;52.29;99404.19;5091528;28;20027;-70
2022/04/28 08:15:35;;;;;;;12.43;7.80;;;;;;;12.64;51.99;99398.31;5091671;28;20104;-69
2022/04/28 08:18:01;;;;;;;14.40;9.10;;;;;;;12.74;52.07;99397.44;5090637;28;20040;-69
2022/04/28 08:20:26;;;;;;;14.15;8.13;;;;;;;12.88;51.77;99394.00;5088287;28;20042;-68
2022/04/28 08:22:52;;;;;;;14.50;9.10;;;;;;;12.98;50.57;99393.91;5091092;28;20028;-69
2022/04/28 08:25:17;;;;;;;13.02;9.20;;;;;;;13.05;51.39;99394.41;5090352;28;20304;-68
2022/04/28 08:27:43;;;;;;;11.85;7.72;;;;;;;13.13;50.80;99386.63;5090794;28;20044;-68
2022/04/28 08:30:08;;;;;;;10.50;6.53;;;;;;;13.27;49.74;99392.28;5088295;28;20484;-69
2022/04/28 08:32:34;;;;;;;17.42;9.25;;;;;;;13.35;48.76;99384.19;5088984;28;20032;-70
2022/04/28 08:34:59;;;;;;;7.28;5.00;;;;;;;13.46;48.88;99386.88;5091176;28;20038;-72
2022/04/28 08:37:25;;;;;;;19.10;9.52;;;;;;;13.65;49.69;99386.91;5091920;28;20039;-68
2022/04/28 08:39:50;;;;;;;13.02;6.93;;;;;;;13.84;49.26;99385.03;5090918;28;20051;-70
2022/04/28 08:42:18;;;;;;;8.77;5.15;;;;;;;14.01;47.93;99386.47;5090893;28;20059;-70
2022/04/28 08:44:44;;;;;;;7.68;5.05;;;;;;;14.20;48.00;99392.00;5090729;28;20028;-69
2022/04/28 08:47:10;;;;;;;7.63;5.25;;;;;;;14.34;47.06;99392.06;5090610;28;20077;-72
2022/04/28 08:49:36;;;;;;;9.10;4.97;;;;;;;14.46;47.64;99391.66;5093077;28;20028;-70
2022/04/28 08:52:02;;;;;;;6.32;4.90;;;;;;;14.63;45.11;99388.34;5089271;28;20175;-71
2022/04/28 08:54:30;;;;;;;5.93;4.75;;;;;;;14.85;47.13;99386.91;5091105;28;20047;-71
2022/04/28 08:56:57;;;;;;;8.15;5.78;;;;;;;15.08;43.69;99389.84;5089085;28;20028;-69
2022/04/28 08:59:24;;;;;;;9.85;5.45;;;;;;;15.23;43.88;99391.50;5091516;28;20073;-69
2022/04/28 09:01:52;;;;;;;9.95;6.65;;;;;;;15.32;45.28;99393.25;5088628;28;20092;-70
2022/04/28 09:04:18;;;;;;;7.47;5.60;;;;;;;15.47;45.76;99386.59;5091725;28;20047;-69
2022/04/28 09:06:45;;;;;;;8.30;5.40;;;;;;;15.60;43.79;99387.75;5088549;28;20039;-69
2022/04/28 09:09:16;;;;;;;10.27;6.55;;;;;;;15.71;44.33;99385.56;5088561;28;20032;-69
2022/04/28 09:11:43;;;;;;;9.15;6.07;;;;;;;15.77;44.05;99384.34;5089844;28;20028;-70
2022/04/28 09:14:15;;;;;;;10.48;7.55;;;;;;;15.89;42.00;99386.66;5090143;28;20127;-69
2022/04/28 09:16:52;;;;;;;9.75;7.40;;;;;;;15.85;42.35;99391.13;5087470;28;20024;-72
2022/04/28 09:19:23;;;;;;;10.80;7.88;;;;;;;15.68;42.56;99397.28;5087774;28;20069;-71
2022/04/28 09:21:55;;;;;;;11.68;8.52;;;;;;;15.45;42.12;99393.59;5087787;28;20073;-69
2022/04/28 09:24:22;;;;;;;13.57;8.65;;;;;;;15.12;42.24;99391.69;5090073;28;20026;-69
2022/04/28 09:26:50;;;;;;;10.85;8.18;;;;;;;14.81;43.14;99402.44;5089708;28;20027;-71
2022/04/28 09:29:17;;;;;;;9.68;7.25;;;;;;;14.61;42.75;99396.09;5089726;28;20052;-71
2022/04/28 09:31:45;;;;;;;11.35;7.78;;;;;;;14.44;43.61;99391.94;5088841;28;20106;-70
2022/04/28 09:34:15;;;;;;;10.13;6.50;;;;;;;14.36;43.72;99398.13;5089780;28;20024;-69
2022/04/28 09:36:42;;;;;;;9.52;7.72;;;;;;;14.29;43.38;99397.66;5090066;28;20028;-69
2022/04/28 09:39:11;;;;;;;11.38;6.68;;;;;;;14.48;44.17;99388.56;5090307;28;20473;-70
2022/04/28 09:44:22;;;;;;;8.75;6.35;;;;;;;14.96;42.71;99393.91;5088674;28;20029;-69
2022/04/28 09:46:48;;;;;;;7.55;6.38;;;;;;;15.02;42.14;99394.63;5088340;28;20155;-69
2022/04/28 09:49:20;;;;;;;8.95;6.20;;;;;;;15.09;42.79;99397.81;5089378;28;20036;-69
2022/04/28 09:51:46;;;;;;;7.38;5.38;;;;;;;15.31;40.69;99394.38;5086334;28;20039;-69
2022/04/28 09:54:17;;;;;;;6.63;4.68;;;;;;;15.38;40.27;99393.97;5088778;28;20022;-68
2022/04/28 09:56:44;;;;;;;8.48;5.45;;;;;;;15.38;39.20;99396.72;5085112;28;20111;-69
2022/04/28 09:59:13;;;;;;;6.88;4.75;;;;;;;15.30;39.16;99403.78;5088623;28;20024;-69
2022/04/28 10:01:39;;;;;;;7.30;4.50;;;;;;;15.18;38.82;99400.69;5087854;28;20032;-68
2022/04/28 10:04:06;;;;;;;7.57;4.72;;;;;;;15.06;38.09;99392.91;5089238;28;20515;-68
2022/04/28 10:06:35;;;;;;;5.15;4.30;;;;;;;14.96;39.86;99396.66;5088809;28;20097;-69
2022/04/28 10:09:04;;;;;;;6.50;4.60;;;;;;;14.99;40.78;99398.00;5089529;28;20032;-69
2022/04/28 10:11:30;;;;;;;7.80;4.90;;;;;;;15.12;40.94;99396.38;5091835;28;20085;-69
2022/04/28 10:13:57;;;;;;;6.18;4.38;;;;;;;15.29;39.56;99382.81;5089512;28;20078;-69
2022/04/28 10:16:24;;;;;;;5.93;4.63;;;;;;;15.46;40.67;99384.16;5088222;28;20221;-70
2022/04/28 10:19:06;;;;;;;6.85;4.20;;;;;;;15.69;39.99;99384.25;5087817;28;20069;-70
2022/04/28 10:21:38;;;;;;;6.60;4.07;;;;;;;15.81;38.54;99386.50;5088951;28;20020;-69
2022/04/28 10:32:57;;;;;;;5.82;3.88;;;;;;;15.80;37.39;99380.16;5007301;28;20104;-68
2022/04/28 10:36:02;;;;;;;4.85;3.97;;;;;;;15.97;35.84;99376.78;5007036;28;20498;-68
2022/04/28 10:38:38;;;;;;;5.80;4.38;;;;;;;16.12;36.24;99366.50;5017041;28;20052;-68
2022/04/28 10:41:09;;;;;;;7.72;4.20;;;;;;;16.28;36.52;99376.09;5045327;28;20056;-68
2022/04/28 10:43:41;;;;;;;8.40;4.85;;;;;;;16.50;36.16;99380.03;5069743;28;20075;-68
2022/04/28 10:46:06;;;;;;;8.32;5.32;;;;;;;16.49;34.75;99381.97;5089800;28;20055;-68
2022/04/28 10:48:33;;;;;;;5.32;4.20;;;;;;;16.55;37.14;99374.38;5089247;28;20405;-68
2022/04/28 10:51:03;;;;;;;8.15;5.38;;;;;;;16.74;36.84;99376.13;5089222;28;20039;-69
2022/04/28 10:53:29;;;;;;;5.72;4.75;;;;;;;16.77;35.95;99369.97;5089307;28;20047;-69
2022/04/28 10:55:55;;;;;;;5.53;4.57;;;;;;;16.77;34.05;99373.53;5084580;28;20474;-70
2022/04/28 10:58:21;;;;;;;6.50;4.22;;;;;;;16.82;35.08;99376.19;5085800;28;20115;-69
2022/04/28 11:00:57;;;;;;;5.85;4.53;;;;;;;16.90;35.66;99360.78;5086164;28;20145;-69
2022/04/28 11:03:46;;;;;;;6.05;4.25;;;;;;;17.09;34.92;99363.38;5086094;28;20569;-68
2022/04/28 11:06:19;;;;;;;7.28;4.40;;;;;;;17.13;34.92;99363.53;5086792;28;20478;-69
2022/04/28 11:08:49;;;;;;;5.85;4.00;;;;;;;17.31;32.74;99358.09;5086340;28;20039;-66
2022/04/28 11:11:15;;;;;;;5.03;4.10;;;;;;;17.41;33.45;99355.84;5088993;28;20127;-68
2022/04/28 11:13:46;;;;;;;7.15;4.90;;;;;;;17.52;31.63;99363.88;5085381;28;20032;-69
2022/04/28 11:16:13;;;;;;;7.45;5.50;;;;;;;17.54;33.10;99364.34;5085803;28;20031;-69
2022/04/28 11:18:39;;;;;;;8.77;5.47;;;;;;;17.69;32.82;99360.34;5088801;28;20055;-69
2022/04/28 11:21:05;;;;;;;7.38;5.45;;;;;;;17.85;33.46;99367.06;5086589;28;20028;-68
2022/04/28 11:23:42;;;;;;;7.90;5.03;;;;;;;18.07;32.97;99359.81;5089126;28;20105;-69
2022/04/28 11:26:09;;;;;;;6.30;4.80;;;;;;;18.21;33.16;99362.44;5089083;28;20503;-68
2022/04/28 11:28:36;;;;;;;8.48;6.07;;;;;;;18.32;33.78;99370.44;5086787;28;20020;-68
2022/04/28 11:31:06;;;;;;;8.70;5.95;;;;;;;18.32;33.71;99382.34;5088934;28;20056;-69
2022/04/28 11:33:31;;;;;;;7.93;6.05;;;;;;;18.26;34.04;99389.22;5090004;28;20024;-68
2022/04/28 11:35:57;;;;;;;13.10;10.32;;;;;;;18.04;33.04;99379.03;5089344;28;20097;-69
2022/04/28 11:38:24;;;;;;;12.52;8.88;;;;;;;17.85;32.39;99382.91;5090314;28;20020;-69
2022/04/28 11:41:00;;;;;;;9.63;6.88;;;;;;;17.52;32.69;99380.53;5089736;28;20031;-69
2022/04/28 11:43:34;;;;;;;8.23;6.10;;;;;;;17.27;33.79;99385.63;5092380;28;20494;-69
2022/04/28 11:46:00;;;;;;;9.15;6.28;;;;;;;17.07;34.48;99389.75;5090303;28;20048;-69
2022/04/28 11:48:29;;;;;;;7.57;5.90;;;;;;;16.97;34.59;99396.38;5092329;28;20036;-69
2022/04/28 11:51:04;;;;;;;7.53;5.60;;;;;;;16.70;33.95;99386.22;5090183;28;20028;-70
2022/04/28 11:53:44;;;;;;;7.65;5.72;;;;;;;16.64;34.38;99385.53;5092551;28;20040;-71